Time;durP1;ratioP1;P1;durP2;ratioP2;P2;SDS_P1;SDS_P2;PMS_P1;PMS_P2;Temp;Humidity;BMP_temperature;BMP_pressure;BME280_temperature;BME280_humidity;BME280_pressure;Samples;Min_cycle;Max_cycle;Signal;HPM_P1;HPM_P2
2023/11/09 00:01:37;;;;;;;5.68;2.60;;;4.60;99.90;;;;;;5123038;28;20299;-74
2023/11/09 00:04:03;;;;;;;3.95;2.00;;;4.90;97.50;;;;;;5122859;28;20027;-73
2023/11/09 00:06:29;;;;;;;8.20;2.20;;;;;;;;;;5122652;28;20024;-73
2023/11/09 00:08:55;;;;;;;7.57;2.38;;;;;;;;;;5122455;28;20031;-73
2023/11/09 00:11:21;;;;;;;9.07;2.90;;;4.90;99.90;;;;;;5122220;28;20019;-73
2023/11/09 00:13:49;;;;;;;6.22;3.63;;;;;;;;;;5122438;28;20095;-72
2023/11/09 00:16:15;;;;;;;5.10;2.58;;;;;;;;;;5122182;28;20023;-72
2023/11/09 00:18:41;;;;;;;3.50;2.40;;;;;;;;;;5121411;28;20069;-72
2023/11/09 00:21:06;;;;;;;4.90;2.05;;;4.70;99.90;;;;;;5121921;28;20196;-71
2023/11/09 00:23:33;;;;;;;4.88;1.85;;;;;;;;;;5121950;28;20027;-71
2023/11/09 00:26:00;;;;;;;3.28;2.10;;;5.00;99.90;;;;;;5120718;28;20264;-71
2023/11/09 00:28:26;;;;;;;4.63;2.30;;;4.90;99.90;;;;;;5122101;28;20023;-71
2023/11/09 00:30:52;;;;;;;4.65;2.33;;;;;;;;;;5121893;28;20027;-72
2023/11/09 00:33:18;;;;;;;7.20;3.50;;;4.90;99.90;;;;;;5121708;28;20073;-72
2023/11/09 00:35:47;;;;;;;7.72;4.63;;;4.60;99.90;;;;;;5121838;28;20253;-71
2023/11/09 00:38:16;;;;;;;10.50;5.15;;;;;;;;;;5121702;28;20322;-71
2023/11/09 00:40:42;;;;;;;9.82;4.65;;;4.30;99.90;;;;;;5121456;28;20039;-72
2023/11/09 00:43:08;;;;;;;7.55;4.50;;;4.40;96.80;;;;;;5121825;28;20027;-72
2023/11/09 00:45:34;;;;;;;11.13;4.97;;;4.20;99.90;;;;;;5121617;28;20046;-72
2023/11/09 00:48:03;;;;;;;10.88;4.50;;;4.20;96.90;;;;;;5121472;28;20023;-70
2023/11/09 00:50:29;;;;;;;8.65;4.45;;;;;;;;;;5121229;28;20047;-72
2023/11/09 00:52:55;;;;;;;5.55;3.50;;;4.10;99.90;;;;;;5120173;27;20039;-71
2023/11/09 00:55:21;;;;;;;9.30;3.55;;;;;;;;;;5121329;28;20319;-72
2023/11/09 00:57:47;;;;;;;8.70;3.40;;;4.00;99.90;;;;;;5121361;28;20260;-71
2023/11/09 01:00:13;;;;;;;7.15;3.70;;;4.00;97.30;;;;;;5121206;28;20132;-72
2023/11/09 01:02:39;;;;;;;9.93;3.80;;;3.90;99.90;;;;;;5121272;28;20042;-71
2023/11/09 01:05:08;;;;;;;7.32;3.90;;;4.40;99.90;;;;;;5120121;28;20019;-72
2023/11/09 01:07:34;;;;;;;6.20;3.20;;;4.00;99.90;;;;;;5121288;28;20016;-72
2023/11/09 01:10:00;;;;;;;8.13;5.00;;;;;;;;;;5121128;28;20330;-72
2023/11/09 01:12:27;;;;;;;10.65;3.75;;;;;;;;;;5121130;28;20039;-71
2023/11/09 01:14:53;;;;;;;6.28;2.88;;;3.90;99.90;;;;;;5121136;28;20027;-71
2023/11/09 01:17:18;;;;;;;6.05;2.83;;;3.70;99.90;;;;;;5121134;28;20064;-70
2023/11/09 01:19:44;;;;;;;6.38;2.80;;;3.70;99.90;;;;;;5120966;28;20039;-70
2023/11/09 01:22:09;;;;;;;5.00;2.65;;;4.30;99.90;;;;;;5121174;28;20075;-70
2023/11/09 01:24:35;;;;;;;10.55;4.43;;;3.70;99.90;;;;;;5121112;28;20086;-70
2023/11/09 01:27:01;;;;;;;8.10;2.60;;;3.80;99.90;;;;;;5127583;27;20024;-70
2023/11/09 01:29:27;;;;;;;5.78;2.20;;;3.70;99.60;;;;;;5120311;27;20378;-70
2023/11/09 01:31:54;;;;;;;4.90;2.30;;;;;;;;;;5102940;28;20322;-70
2023/11/09 01:34:21;;;;;;;6.32;2.28;;;3.90;99.90;;;;;;5100709;28;20023;-70
2023/11/09 01:36:47;;;;;;;4.90;2.25;;;;;;;;;;5100698;28;20023;-70
2023/11/09 01:39:13;;;;;;;3.80;2.05;;;;;;;;;;5100419;28;20098;-70
2023/11/09 01:41:41;;;;;;;2.05;1.80;;;3.60;99.90;;;;;;5100359;28;20016;-70
2023/11/09 01:44:07;;;;;;;5.22;2.00;;;;;;;;;;5099279;28;20051;-70
2023/11/09 01:46:34;;;;;;;4.50;1.88;;;;;;;;;;5100705;28;20165;-70
2023/11/09 01:49:00;;;;;;;2.13;1.40;;;4.00;99.90;;;;;;5100285;28;20071;-70
2023/11/09 01:51:28;;;;;;;3.15;1.73;;;4.00;98.70;;;;;;5100232;28;20056;-70
2023/11/09 01:53:55;;;;;;;4.57;1.98;;;;;;;;;;5100068;28;20257;-70
2023/11/09 01:56:23;;;;;;;4.72;1.70;;;3.90;99.90;;;;;;5100520;28;20024;-71
2023/11/09 01:58:49;;;;;;;3.22;2.40;;;4.30;99.90;;;;;;5100273;28;20245;-71
2023/11/09 02:01:16;;;;;;;5.10;1.80;;;3.90;99.90;;;;;;5100276;28;20020;-70
2023/11/09 02:03:42;;;;;;;4.05;2.30;;;;;;;;;;5100118;28;20043;-70
2023/11/09 02:06:09;;;;;;;5.90;2.47;;;3.90;98.60;;;;;;5100599;28;20027;-70
2023/11/09 02:08:36;;;;;;;6.45;2.35;;;3.80;99.90;;;;;;5100336;28;20099;-70
2023/11/09 02:11:02;;;;;;;4.47;2.47;;;;;;;;;;5100382;28;20016;-71
2023/11/09 02:13:28;;;;;;;3.95;2.70;;;4.10;99.90;;;;;;5100153;28;20035;-70
2023/11/09 02:15:54;;;;;;;6.93;2.70;;;;;;;;;;5100103;28;20028;-69
2023/11/09 02:18:21;;;;;;;4.68;2.13;;;4.10;99.90;;;;;;5100133;28;20304;-70
2023/11/09 02:20:51;;;;;;;6.47;3.13;;;4.00;98.30;;;;;;5099886;28;20282;-73
2023/11/09 02:23:23;;;;;;;3.35;2.50;;;4.00;98.10;;;;;;5099941;28;20083;-71
2023/11/09 02:25:49;;;;;;;7.65;3.22;;;;;;;;;;5099947;28;20089;-72
2023/11/09 02:28:15;;;;;;;4.07;2.67;;;4.00;99.90;;;;;;5099727;28;20048;-72
2023/11/09 02:30:41;;;;;;;5.65;3.22;;;3.70;99.90;;;;;;5098547;28;20031;-74
2023/11/09 02:33:08;;;;;;;6.15;2.78;;;;;;;;;;5099864;28;20326;-73
2023/11/09 02:35:34;;;;;;;7.40;3.08;;;;;;;;;;5100193;28;20020;-74
2023/11/09 02:37:59;;;;;;;4.55;3.25;;;4.10;99.90;;;;;;5099706;28;20063;-71
2023/11/09 02:40:25;;;;;;;5.90;3.15;;;4.10;99.90;;;;;;5099560;28;20028;-71
2023/11/09 02:42:51;;;;;;;6.75;2.75;;;4.70;99.90;;;;;;5101212;28;20012;-72
2023/11/09 02:45:17;;;;;;;6.13;3.00;;;;;;;;;;5102074;28;20215;-72
2023/11/09 02:47:43;;;;;;;9.52;3.85;;;;;;;;;;5103347;28;20024;-72
2023/11/09 02:50:09;;;;;;;5.43;3.05;;;;;;;;;;5103259;28;20055;-71
2023/11/09 02:52:35;;;;;;;5.47;3.38;;;4.60;99.90;;;;;;5103428;28;20036;-71
2023/11/09 02:55:01;;;;;;;4.78;3.40;;;;;;;;;;5103429;28;20043;-71
2023/11/09 02:57:29;;;;;;;5.68;3.25;;;;;;;;;;5103193;28;20073;-71
2023/11/09 02:59:55;;;;;;;5.95;3.33;;;;;;;;;;5103177;28;20028;-71
2023/11/09 03:02:21;;;;;;;5.07;3.53;;;5.00;99.90;;;;;;5103338;28;20047;-71
2023/11/09 03:04:47;;;;;;;8.98;3.67;;;5.10;99.90;;;;;;5103225;28;20024;-71
2023/11/09 03:07:15;;;;;;;4.72;3.17;;;5.10;98.90;;;;;;5102982;28;20027;-70
2023/11/09 03:09:41;;;;;;;5.67;3.00;;;5.20;99.90;;;;;;5103278;28;20087;-72
2023/11/09 03:12:07;;;;;;;6.22;3.55;;;5.30;99.90;;;;;;5102933;28;20054;-71
2023/11/09 03:14:34;;;;;;;6.07;3.13;;;5.50;99.90;;;;;;5103194;28;20028;-73
2023/11/09 03:17:07;;;;;;;5.70;2.92;;;5.70;98.90;;;;;;5102985;28;20023;-72
2023/11/09 03:19:35;;;;;;;4.78;2.90;;;5.90;99.00;;;;;;5103018;28;20043;-74
2023/11/09 03:22:01;;;;;;;6.40;2.92;;;6.10;99.70;;;;;;5102947;28;20030;-72
2023/11/09 03:24:29;;;;;;;4.28;2.67;;;;;;;;;;5103229;28;20024;-73
2023/11/09 03:26:56;;;;;;;3.53;2.92;;;;;;;;;;5103065;28;20043;-73
2023/11/09 03:29:22;;;;;;;5.90;3.08;;;6.10;99.40;;;;;;5102860;28;20246;-73
2023/11/09 03:31:48;;;;;;;4.07;2.72;;;;;;;;;;5102794;28;20059;-73
2023/11/09 03:34:14;;;;;;;3.78;2.67;;;;;;;;;;5103105;28;20015;-74
2023/11/09 03:36:40;;;;;;;4.30;2.78;;;;;;;;;;5103113;28;20055;-74
2023/11/09 03:39:06;;;;;;;6.35;2.47;;;6.90;99.90;;;;;;5101537;28;20043;-73
2023/11/09 03:41:31;;;;;;;8.45;2.67;;;6.60;99.90;;;;;;5102646;28;20016;-73
2023/11/09 03:43:58;;;;;;;3.70;2.80;;;;;;;;;;5102659;28;20024;-73
2023/11/09 03:46:23;;;;;;;5.13;3.05;;;6.60;99.90;;;;;;5102373;28;20047;-73
2023/11/09 03:48:49;;;;;;;5.78;3.00;;;6.60;99.90;;;;;;5101042;28;20036;-71
2023/11/09 03:51:15;;;;;;;2.95;2.63;;;6.90;97.20;;;;;;5102302;28;20091;-71
2023/11/09 03:53:41;;;;;;;5.80;2.63;;;;;;;;;;5101957;28;20035;-72
2023/11/09 03:56:07;;;;;;;4.63;2.40;;;6.60;99.90;;;;;;5100870;28;20024;-69
2023/11/09 03:58:33;;;;;;;5.05;3.03;;;7.10;97.00;;;;;;5102123;28;20129;-71
2023/11/09 04:00:59;;;;;;;3.10;2.30;;;6.80;99.90;;;;;;5102195;28;20028;-72
2023/11/09 04:03:25;;;;;;;5.45;2.97;;;6.70;99.90;;;;;;5102256;28;20088;-71
2023/11/09 04:05:51;;;;;;;5.20;3.17;;;;;;;;;;5101942;28;20445;-71
2023/11/09 04:08:18;;;;;;;5.28;3.35;;;6.60;99.90;;;;;;5102174;28;20301;-71
2023/11/09 04:10:43;;;;;;;4.13;2.97;;;6.60;99.90;;;;;;5101888;28;20020;-71
2023/11/09 04:13:09;;;;;;;5.30;3.50;;;6.60;99.90;;;;;;5101943;28;20020;-71
2023/11/09 04:15:36;;;;;;;5.82;2.92;;;6.70;99.90;;;;;;5101783;28;20028;-71
2023/11/09 04:18:02;;;;;;;6.45;4.00;;;;;;;;;;5101757;28;20062;-71
2023/11/09 04:20:28;;;;;;;5.00;2.92;;;6.50;98.70;;;;;;5101882;28;20402;-71
2023/11/09 04:22:54;;;;;;;4.18;3.13;;;;;;;;;;5101694;28;20016;-71
2023/11/09 04:25:22;;;;;;;5.45;3.25;;;6.60;99.90;;;;;;5106768;27;20008;-71
2023/11/09 04:27:49;;;;;;;4.63;3.05;;;6.60;99.90;;;;;;5106417;28;20031;-73
2023/11/09 04:30:16;;;;;;;4.68;3.22;;;7.10;99.90;;;;;;5109243;28;20022;-73
2023/11/09 04:32:42;;;;;;;4.85;2.70;;;6.50;97.50;;;;;;5121950;28;20322;-73
2023/11/09 04:35:09;;;;;;;5.35;3.50;;;6.50;99.90;;;;;;5121842;28;20016;-73
2023/11/09 04:37:38;;;;;;;4.15;3.03;;;6.60;99.50;;;;;;5119368;28;20023;-71
2023/11/09 04:40:12;;;;;;;5.65;3.58;;;6.60;98.40;;;;;;5101048;28;20035;-71
2023/11/09 04:42:39;;;;;;;5.20;3.17;;;6.50;99.90;;;;;;5101252;28;20016;-71
2023/11/09 04:45:11;;;;;;;8.25;3.15;;;6.50;99.90;;;;;;5101176;28;20099;-72
2023/11/09 04:47:41;;;;;;;6.15;3.13;;;;;;;;;;5101293;28;20024;-71
2023/11/09 04:50:22;;;;;;;7.13;2.80;;;6.90;99.20;;;;;;5100970;28;20060;-71
2023/11/09 04:53:03;;;;;;;8.77;2.60;;;;;;;;;;5116114;28;20026;-72
2023/11/09 04:55:42;;;;;;;4.35;2.92;;;6.20;99.90;;;;;;5121595;28;20026;-72
2023/11/09 05:09:08;;;;;;;5.25;3.10;;;;;;;;;;5142374;27;20053;-72
2023/11/09 05:11:34;;;;;;;4.55;2.78;;;;;;;;;;5141794;27;20019;-72
2023/11/09 05:13:59;;;;;;;5.78;2.95;;;6.80;99.90;;;;;;5141864;27;20050;-72
2023/11/09 05:16:25;;;;;;;5.30;3.13;;;6.80;99.90;;;;;;5141707;27;20027;-72
2023/11/09 05:18:51;;;;;;;3.20;2.55;;;;;;;;;;5141355;27;20015;-71
2023/11/09 05:21:17;;;;;;;4.72;2.53;;;;;;;;;;5141033;27;20110;-71
2023/11/09 05:23:45;;;;;;;3.58;2.95;;;6.80;99.90;;;;;;5140681;27;20092;-71
2023/11/09 05:26:10;;;;;;;2.83;2.38;;;7.40;99.90;;;;;;5140856;27;20026;-71
2023/11/09 05:28:37;;;;;;;4.78;2.88;;;;;;;;;;5141013;27;20019;-71
2023/11/09 05:31:06;;;;;;;3.35;2.45;;;;;;;;;;5141487;27;20022;-71
2023/11/09 05:33:33;;;;;;;8.77;2.70;;;;;;;;;;5141424;27;20281;-71
2023/11/09 05:36:00;;;;;;;2.65;2.15;;;;;;;;;;5141653;27;20066;-69
2023/11/09 05:38:26;;;;;;;3.80;2.60;;;7.00;99.90;;;;;;5141469;27;20015;-72
2023/11/09 05:40:52;;;;;;;3.60;2.28;;;7.00;99.90;;;;;;5141516;27;20027;-72
2023/11/09 05:43:19;;;;;;;4.38;2.33;;;;;;;;;;5141449;27;20076;-72
2023/11/09 05:45:45;;;;;;;4.05;2.55;;;7.00;99.90;;;;;;5141647;27;20039;-71
2023/11/09 05:48:12;;;;;;;5.53;2.17;;;6.90;99.90;;;;;;5142301;28;20015;-74
2023/11/09 05:50:38;;;;;;;2.53;2.03;;;;;;;;;;5140314;28;20134;-72
2023/11/09 05:53:05;;;;;;;2.42;1.98;;;6.90;98.60;;;;;;5142181;28;20019;-73
2023/11/09 05:55:31;;;;;;;1.85;1.55;;;;;;;;;;5141442;28;20094;-74
2023/11/09 05:57:59;;;;;;;3.33;1.90;;;6.80;99.90;;;;;;5141588;28;20026;-74
2023/11/09 06:00:28;;;;;;;2.83;1.90;;;6.90;99.90;;;;;;5142895;28;20340;-75
2023/11/09 06:02:53;;;;;;;4.45;2.40;;;6.90;99.90;;;;;;5142705;27;20035;-74
2023/11/09 06:05:24;;;;;;;2.50;1.85;;;6.90;98.60;;;;;;5142392;28;20206;-75
2023/11/09 06:07:53;;;;;;;6.03;1.70;;;6.90;99.90;;;;;;5142235;27;20019;-74
2023/11/09 06:10:20;;;;;;;4.35;1.70;;;;;;;;;;5141890;27;20213;-74
2023/11/09 06:12:46;;;;;;;1.83;1.50;;;7.10;99.90;;;;;;5140414;28;20232;-74
2023/11/09 06:15:15;;;;;;;1.65;1.38;;;;;;;;;;5140855;28;20369;-74
2023/11/09 06:17:41;;;;;;;1.52;1.42;;;;;;;;;;5145974;27;20011;-74
2023/11/09 06:20:10;;;;;;;1.85;1.67;;;7.10;99.90;;;;;;5139562;27;20031;-72
2023/11/09 06:22:36;;;;;;;4.57;1.77;;;7.00;99.90;;;;;;5121511;28;20223;-72
2023/11/09 06:25:02;;;;;;;3.47;1.45;;;;;;;;;;5124380;28;20038;-72
2023/11/09 06:27:28;;;;;;;3.13;2.00;;;7.00;99.90;;;;;;5125076;28;20058;-73
2023/11/09 06:29:56;;;;;;;1.80;1.55;;;;;;;;;;5124928;28;20023;-73
2023/11/09 06:32:22;;;;;;;2.25;1.40;;;7.00;99.90;;;;;;5123177;28;20050;-74
2023/11/09 06:34:48;;;;;;;2.63;1.40;;;7.10;99.90;;;;;;5124809;28;20023;-74
2023/11/09 06:37:13;;;;;;;3.25;1.35;;;6.70;99.90;;;;;;5125535;28;20018;-73
2023/11/09 06:39:46;;;;;;;2.00;1.45;;;;;;;;;;5125580;28;20036;-74
2023/11/09 06:42:12;;;;;;;2.60;1.23;;;6.80;99.90;;;;;;5125749;28;20024;-75
2023/11/09 06:44:38;;;;;;;6.25;1.50;;;;;;;;;;5122936;27;20027;-75
2023/11/09 06:47:04;;;;;;;2.92;1.55;;;6.80;99.90;;;;;;5104851;28;20020;-74
2023/11/09 06:49:29;;;;;;;5.20;1.70;;;6.90;99.90;;;;;;5104885;28;20120;-74
2023/11/09 06:51:56;;;;;;;2.00;1.40;;;;;;;;;;5102575;28;20051;-74
2023/11/09 06:54:22;;;;;;;1.27;1.08;;;6.90;99.90;;;;;;5100549;28;20054;-73
2023/11/09 06:56:48;;;;;;;2.22;1.70;;;;;;;;;;5102754;28;20202;-73
2023/11/09 06:59:14;;;;;;;2.70;1.25;;;;;;;;;;5101449;28;20292;-75
2023/11/09 07:01:41;;;;;;;4.88;1.77;;;;;;;;;;5102179;28;20141;-73
2023/11/09 07:04:07;;;;;;;3.70;1.35;;;;;;;;;;5101473;28;20068;-75
2023/11/09 07:06:33;;;;;;;4.70;1.95;;;7.50;99.90;;;;;;5101404;28;20024;-74
2023/11/09 07:08:59;;;;;;;3.65;1.70;;;;;;;;;;5103325;28;20069;-74
2023/11/09 07:11:25;;;;;;;3.00;1.65;;;;;;;;;;5103718;28;20032;-73
2023/11/09 07:13:51;;;;;;;1.58;1.40;;;;;;;;;;5104682;28;20027;-75
2023/11/09 07:16:18;;;;;;;4.45;1.75;;;7.90;99.90;;;;;;5103530;28;20016;-74
2023/11/09 07:18:45;;;;;;;3.45;2.05;;;8.30;99.80;;;;;;5086641;28;20023;-73
2023/11/09 07:21:12;;;;;;;2.47;1.85;;;;;;;;;;5103622;28;20073;-74
2023/11/09 07:23:38;;;;;;;2.47;1.90;;;;;;;;;;5104699;28;20028;-73
2023/11/09 07:26:04;;;;;;;3.33;2.15;;;;;;;;;;5104964;28;20028;-73
2023/11/09 07:28:31;;;;;;;7.43;1.63;;;8.80;98.20;;;;;;5104462;28;20024;-73
2023/11/09 07:30:59;;;;;;;1.80;1.40;;;8.80;95.20;;;;;;5105240;28;20100;-73
2023/11/09 07:33:24;;;;;;;1.77;1.58;;;8.80;92.80;;;;;;5104798;28;20016;-75
2023/11/09 07:35:51;;;;;;;2.33;1.30;;;;;;;;;;5105177;28;20390;-74
2023/11/09 07:38:19;;;;;;;2.22;1.73;;;;;;;;;;5105243;28;20069;-73
2023/11/09 07:40:45;;;;;;;2.40;1.33;;;;;;;;;;5104352;28;20084;-73
2023/11/09 07:43:11;;;;;;;2.53;1.40;;;;;;;;;;5105016;28;20328;-75
2023/11/09 07:45:37;;;;;;;2.63;1.65;;;7.70;88.10;;;;;;5104849;28;20370;-74
2023/11/09 07:48:06;;;;;;;4.07;2.13;;;9.60;88.40;;;;;;5104977;28;20028;-73
2023/11/09 07:50:33;;;;;;;2.72;1.25;;;9.70;87.40;;;;;;5105060;28;20040;-74
2023/11/09 07:53:00;;;;;;;2.00;1.48;;;9.90;94.40;;;;;;5102641;28;20020;-73
2023/11/09 07:55:29;;;;;;;1.60;1.38;;;9.90;86.10;;;;;;5103999;28;20334;-72
2023/11/09 07:58:02;;;;;;;4.13;1.25;;;10.00;85.70;;;;;;5102916;28;20023;-73
2023/11/09 08:00:29;;;;;;;1.90;1.30;;;10.20;90.00;;;;;;5104612;28;20072;-74
2023/11/09 08:02:55;;;;;;;1.33;1.10;;;10.00;93.10;;;;;;5104398;28;20034;-74
2023/11/09 08:05:22;;;;;;;2.78;1.20;;;10.30;83.50;;;;;;5109622;27;20269;-73
2023/11/09 08:07:48;;;;;;;1.40;1.30;;;;;;;;;;5120996;28;20019;-73
2023/11/09 08:10:14;;;;;;;1.30;1.20;;;;;;;;;;5120722;28;20304;-73
2023/11/09 08:12:40;;;;;;;0.80;0.80;;;10.50;92.30;;;;;;5104451;28;20027;-73
2023/11/09 08:15:10;;;;;;;3.15;1.10;;;10.70;81.10;;;;;;5119623;27;20012;-74
2023/11/09 08:17:39;;;;;;;1.30;1.15;;;10.90;91.20;;;;;;5104986;28;20024;-74
2023/11/09 08:20:07;;;;;;;2.72;1.70;;;11.00;90.40;;;;;;5108933;28;20031;-74
2023/11/09 08:22:35;;;;;;;3.25;1.20;;;10.90;77.50;;;;;;5108217;28;20323;-73
2023/11/09 08:25:02;;;;;;;0.98;0.80;;;11.00;89.60;;;;;;5122138;28;20030;-72
2023/11/09 08:27:30;;;;;;;1.50;0.98;;;;;;;;;;5123606;28;20019;-73
2023/11/09 08:29:57;;;;;;;1.40;0.95;;;11.30;89.10;;;;;;5122820;28;20086;-71
2023/11/09 08:32:25;;;;;;;1.50;1.02;;;;;;;;;;5108647;28;20095;-72
2023/11/09 08:34:52;;;;;;;1.08;0.98;;;11.10;86.70;;;;;;5108215;28;20015;-72
2023/11/09 08:37:19;;;;;;;1.13;0.85;;;;;;;;;;5121272;28;20035;-73
2023/11/09 08:39:44;;;;;;;4.88;1.10;;;11.10;86.40;;;;;;5121962;28;20028;-73
2023/11/09 08:42:10;;;;;;;1.95;1.48;;;;;;;;;;5122702;28;20019;-73
2023/11/09 08:44:37;;;;;;;2.00;1.80;;;;;;;;;;5120415;28;20325;-72
2023/11/09 08:47:03;;;;;;;2.53;1.40;;;11.50;73.00;;;;;;5122440;28;20034;-73
2023/11/09 08:49:30;;;;;;;1.60;1.10;;;;;;;;;;5122540;28;20063;-74
2023/11/09 08:51:56;;;;;;;1.73;1.20;;;11.80;84.80;;;;;;5123730;28;20016;-73
2023/11/09 08:54:22;;;;;;;1.88;1.45;;;11.60;83.70;;;;;;5121078;28;20028;-72
2023/11/09 08:56:48;;;;;;;6.10;1.67;;;;;;;;;;5120371;28;20027;-73
2023/11/09 08:59:14;;;;;;;4.55;1.63;;;;;;;;;;5115930;28;20059;-74
2023/11/09 09:01:40;;;;;;;1.80;1.30;;;;;;;;;;5101371;28;20028;-74
2023/11/09 09:04:06;;;;;;;3.78;1.50;;;12.00;76.70;;;;;;5101493;28;20380;-72
2023/11/09 09:06:32;;;;;;;3.40;1.95;;;12.30;81.00;;;;;;5101509;28;20288;-71
2023/11/09 09:08:59;;;;;;;3.83;1.33;;;;;;;;;;5101250;28;20020;-71
2023/11/09 09:11:26;;;;;;;2.85;1.35;;;12.00;79.90;;;;;;5101519;28;20020;-72
2023/11/09 09:13:52;;;;;;;2.33;1.60;;;12.10;79.70;;;;;;5101136;28;20024;-72
2023/11/09 09:16:18;;;;;;;2.40;1.55;;;11.90;79.80;;;;;;5101143;28;20055;-72
2023/11/09 09:18:46;;;;;;;4.13;1.40;;;12.30;73.60;;;;;;5101210;28;20020;-72
2023/11/09 09:21:11;;;;;;;2.00;1.17;;;12.00;78.30;;;;;;5099924;28;20051;-72
2023/11/09 09:23:38;;;;;;;2.00;1.27;;;;;;;;;;5101138;28;20066;-74
2023/11/09 09:26:04;;;;;;;7.40;1.38;;;12.20;65.50;;;;;;5101158;28;20100;-72
2023/11/09 09:28:30;;;;;;;2.20;1.52;;;;;;;;;;5100328;28;20020;-72
2023/11/09 09:30:56;;;;;;;2.40;1.10;;;;;;;;;;5101371;28;20019;-71
2023/11/09 09:33:22;;;;;;;7.00;2.03;;;;;;;;;;5108886;28;20219;-72
2023/11/09 09:35:51;;;;;;;1.63;1.20;;;;;;;;;;5121714;28;20038;-72
2023/11/09 09:38:19;;;;;;;3.17;1.38;;;12.70;76.10;;;;;;5120455;28;20032;-72
2023/11/09 09:40:49;;;;;;;4.83;1.57;;;;;;;;;;5121884;28;20072;-73
2023/11/09 09:43:16;;;;;;;1.92;1.20;;;12.70;73.30;;;;;;5121346;28;20247;-74
2023/11/09 09:45:46;;;;;;;3.53;1.48;;;;;;;;;;5121883;28;20062;-74
2023/11/09 09:48:13;;;;;;;3.10;1.65;;;;;;;;;;5120103;28;20026;-71
2023/11/09 09:50:39;;;;;;;2.97;1.35;;;;;;;;;;5121152;28;20058;-73
2023/11/09 09:53:09;;;;;;;2.25;1.08;;;12.90;62.30;;;;;;5120851;28;20058;-74
2023/11/09 09:55:36;;;;;;;8.43;1.60;;;12.90;62.30;;;;;;5121914;28;20065;-74
2023/11/09 09:58:03;;;;;;;3.55;1.40;;;;;;;;;;5121994;28;20024;-71
2023/11/09 10:00:30;;;;;;;1.60;1.25;;;13.00;61.60;;;;;;5107845;28;20339;-73
2023/11/09 10:03:00;;;;;;;2.95;1.55;;;12.90;67.00;;;;;;5120007;28;20023;-72
2023/11/09 10:05:27;;;;;;;1.52;1.40;;;13.00;73.40;;;;;;5121778;28;20026;-72
2023/11/09 10:08:07;;;;;;;2.13;1.85;;;13.00;61.80;;;;;;5121769;28;20024;-73
2023/11/09 10:10:49;;;;;;;3.28;1.27;;;13.10;61.60;;;;;;5120075;28;20024;-73
2023/11/09 10:13:15;;;;;;;5.03;1.73;;;;;;;;;;5121227;28;20367;-73
2023/11/09 10:15:43;;;;;;;2.45;1.52;;;13.60;72.20;;;;;;5119340;28;20016;-72
2023/11/09 10:18:11;;;;;;;;;;;13.60;61.20;;;;;;5120207;28;20330;-72
2023/11/09 10:20:38;;;;;;;1.98;1.17;;;13.50;63.30;;;;;;5119196;28;20100;-73
2023/11/09 10:23:08;;;;;;;1.88;1.17;;;13.70;58.90;;;;;;5119694;28;20197;-73
2023/11/09 10:25:36;;;;;;;2.67;1.20;;;;;;;;;;5119385;28;20018;-72
2023/11/09 10:28:07;;;;;;;1.60;1.17;;;;;;;;;;5121022;28;20019;-73
2023/11/09 10:30:37;;;;;;;3.95;1.00;;;13.90;58.90;;;;;;5120604;28;20052;-72
2023/11/09 10:33:05;;;;;;;2.25;1.27;;;14.10;64.90;;;;;;5120762;28;20027;-73
2023/11/09 10:35:31;;;;;;;2.60;0.90;;;13.90;63.10;;;;;;5118728;28;20016;-72
2023/11/09 10:37:58;;;;;;;5.47;1.60;;;13.90;69.80;;;;;;5120951;28;20024;-73
2023/11/09 10:40:27;;;;;;;1.27;1.08;;;;;;;;;;5121864;28;20076;-73
2023/11/09 10:42:54;;;;;;;2.65;1.00;;;14.00;58.00;;;;;;5120687;28;20023;-73
2023/11/09 10:45:22;;;;;;;3.17;1.27;;;14.10;58.00;;;;;;5120557;28;20359;-72
2023/11/09 10:47:52;;;;;;;2.23;1.20;;;14.20;69.70;;;;;;5121236;28;20168;-72
2023/11/09 10:50:21;;;;;;;4.88;1.80;;;14.30;58.60;;;;;;5121241;28;20059;-72
2023/11/09 10:52:49;;;;;;;;;;;14.30;59.10;;;;;;5121771;28;20026;-72
2023/11/09 10:55:16;;;;;;;1.23;0.90;;;14.50;58.10;;;;;;5121253;28;19952;-71
2023/11/09 10:57:43;;;;;;;1.63;1.00;;;14.60;67.30;;;;;;5118592;28;20063;-69
2023/11/09 11:00:25;;;;;;;2.10;0.93;;;14.80;68.20;;;;;;5105572;28;20028;-69
2023/11/09 11:02:53;;;;;;;1.70;1.00;;;14.90;56.60;;;;;;5103528;28;20403;-70
2023/11/09 11:05:24;;;;;;;1.55;0.80;;;;;;;;;;5123695;28;20015;-71
2023/11/09 11:07:57;;;;;;;2.50;1.17;;;15.10;56.70;;;;;;5119009;27;20023;-71
2023/11/09 11:10:25;;;;;;;1.25;0.85;;;15.00;58.00;;;;;;5103094;28;20262;-70
2023/11/09 11:12:53;;;;;;;1.35;0.82;;;15.10;54.40;;;;;;5109880;28;20054;-71
2023/11/09 11:15:24;;;;;;;1.13;0.98;;;15.00;65.10;;;;;;5103345;28;20028;-70
2023/11/09 11:18:16;;;;;;;1.75;0.90;;;15.10;64.70;;;;;;5108482;28;20101;-70
2023/11/09 11:21:30;;;;;;;1.83;1.05;;;15.20;53.90;;;;;;5129949;27;20050;-70
2023/11/09 11:24:19;;;;;;;1.27;1.00;;;15.10;54.20;;;;;;5138661;27;20238;-70
2023/11/09 11:26:57;;;;;;;2.70;0.95;;;14.90;54.50;;;;;;5143835;27;20019;-70
2023/11/09 11:29:23;;;;;;;1.33;0.73;;;;;;;;;;5143851;27;20046;-70
2023/11/09 11:31:52;;;;;;;3.40;1.08;;;14.70;56.00;;;;;;5143832;27;20026;-70
2023/11/09 11:34:49;;;;;;;1.65;0.95;;;14.70;55.10;;;;;;5143749;27;20027;-71
2023/11/09 11:37:31;;;;;;;1.45;0.80;;;15.20;65.90;;;;;;5144159;27;20088;-71
2023/11/09 11:39:59;;;;;;;2.45;1.00;;;;;;;;;;5143986;27;20058;-70
2023/11/09 11:42:27;;;;;;;1.63;1.10;;;15.10;64.80;;;;;;5143958;27;20011;-71
2023/11/09 11:44:59;;;;;;;2.10;1.00;;;15.20;53.60;;;;;;5143936;27;20203;-70
2023/11/09 11:47:30;;;;;;;0.93;0.68;;;15.30;63.60;;;;;;5144006;27;20012;-70
2023/11/09 11:50:10;;;;;;;1.95;1.27;;;15.40;53.50;;;;;;5143997;27;20347;-70
2023/11/09 11:52:35;;;;;;;3.92;1.80;;;15.60;63.80;;;;;;5142384;27;20015;-70
2023/11/09 11:55:03;;;;;;;3.15;1.40;;;15.60;53.60;;;;;;5143492;27;20027;-70
2023/11/09 11:57:34;;;;;;;2.40;1.10;;;15.80;63.10;;;;;;5143436;27;20031;-70
2023/11/09 12:00:10;;;;;;;3.78;1.33;;;15.90;63.00;;;;;;5143505;27;20037;-70
2023/11/09 12:02:37;;;;;;;0.95;0.82;;;15.70;62.80;;;;;;5142219;27;20025;-70
2023/11/09 12:05:03;;;;;;;2.40;1.25;;;;;;;;;;5143173;27;20255;-70
2023/11/09 12:07:34;;;;;;;1.83;1.17;;;16.00;62.30;;;;;;5143200;27;20023;-70
2023/11/09 12:10:00;;;;;;;1.17;0.90;;;16.20;58.20;;;;;;5143173;27;20022;-70
2023/11/09 12:12:26;;;;;;;5.28;1.85;;;16.10;61.10;;;;;;5143091;27;20079;-70
2023/11/09 12:14:52;;;;;;;1.38;1.02;;;16.40;51.80;;;;;;5143020;27;20019;-70
2023/11/09 12:17:18;;;;;;;2.33;0.77;;;;;;;;;;5143053;27;20038;-70
2023/11/09 12:19:45;;;;;;;0.50;0.50;;;16.20;52.80;;;;;;5142797;27;20035;-70
2023/11/09 12:22:11;;;;;;;1.35;1.20;;;16.10;60.10;;;;;;5142944;27;20048;-71
2023/11/09 12:24:37;;;;;;;1.40;0.85;;;16.80;59.20;;;;;;5143498;27;20023;-73
2023/11/09 12:27:08;;;;;;;1.48;1.30;;;16.80;52.00;;;;;;5143328;27;20038;-72
2023/11/09 12:29:41;;;;;;;3.72;1.55;;;17.50;51.10;;;;;;5143701;27;20038;-71
2023/11/09 12:32:07;;;;;;;3.47;1.67;;;18.40;49.30;;;;;;5143822;27;20025;-72
2023/11/09 12:34:37;;;;;;;3.22;1.55;;;19.40;48.10;;;;;;5143494;27;20027;-71
2023/11/09 12:37:13;;;;;;;2.20;1.73;;;20.70;46.20;;;;;;5142149;27;20598;-72
2023/11/09 12:39:43;;;;;;;2.20;1.80;;;22.80;40.80;;;;;;5143084;27;20041;-72
2023/11/09 12:42:12;;;;;;;2.20;1.73;;;23.00;41.00;;;;;;5142605;27;20334;-72
2023/11/09 12:44:46;;;;;;;1.70;1.60;;;24.30;39.20;;;;;;5142508;27;20027;-71
2023/11/09 12:47:25;;;;;;;1.77;1.40;;;26.10;36.90;;;;;;5142417;27;20110;-71
2023/11/09 12:49:54;;;;;;;3.35;2.00;;;27.90;35.20;;;;;;5142275;27;20046;-72
2023/11/09 12:52:26;;;;;;;3.13;1.50;;;29.00;33.30;;;;;;5142362;27;20029;-72
2023/11/09 12:54:53;;;;;;;3.25;1.42;;;29.90;32.30;;;;;;5142396;27;20086;-72
2023/11/09 12:57:22;;;;;;;4.55;1.95;;;30.60;31.40;;;;;;5121861;27;20038;-71
2023/11/09 12:59:49;;;;;;;4.40;1.48;;;30.20;30.70;;;;;;5101887;28;20036;-72
2023/11/09 13:02:18;;;;;;;3.88;1.90;;;29.80;30.90;;;;;;5107993;28;20378;-74
2023/11/09 13:04:51;;;;;;;3.10;1.33;;;29.60;33.60;;;;;;5121901;28;20088;-71
2023/11/09 13:07:17;;;;;;;2.15;1.83;;;27.80;35.90;;;;;;5121448;27;20084;-71
2023/11/09 13:09:46;;;;;;;3.25;1.70;;;27.20;34.90;;;;;;5120099;28;20031;-71
2023/11/09 13:12:28;;;;;;;1.75;1.48;;;27.20;36.40;;;;;;5121353;28;20023;-70
2023/11/09 13:17:48;;;;;;;2.15;1.92;;;27.60;36.20;;;;;;5121674;28;20226;-71
2023/11/09 13:20:26;;;;;;;2.00;1.90;;;27.80;32.20;;;;;;5121133;28;20039;-71
2023/11/09 13:23:05;;;;;;;3.60;1.80;;;28.10;33.90;;;;;;5121161;28;20177;-70
2023/11/09 13:25:36;;;;;;;2.38;1.65;;;28.50;34.90;;;;;;5121106;28;20050;-70
2023/11/09 13:28:06;;;;;;;4.90;1.92;;;26.90;34.60;;;;;;5121110;28;20016;-71
2023/11/09 13:30:33;;;;;;;2.65;1.63;;;25.40;38.00;;;;;;5121182;28;20407;-70
2023/11/09 13:33:14;;;;;;;2.08;1.15;;;23.50;34.70;;;;;;5118502;28;20350;-70
2023/11/09 13:35:45;;;;;;;5.68;2.00;;;21.50;38.70;;;;;;5103977;28;20023;-70
2023/11/09 13:38:24;;;;;;;3.03;1.73;;;;;;;;;;5109885;28;20026;-69
2023/11/09 13:40:52;;;;;;;3.00;1.98;;;;;;;;;;5120677;28;20044;-70
2023/11/09 13:43:21;;;;;;;6.45;1.67;;;19.80;45.60;;;;;;5100565;28;20032;-70
2023/11/09 13:45:46;;;;;;;;;;;19.50;42.80;;;;;;5100598;28;20020;-70